createdAt,value
2022-08-21T00:00:42.382Z,100576.16
2022-08-21T00:03:50.405Z,100576.14
2022-08-21T00:06:22.881Z,100578.81
2022-08-21T00:08:54.955Z,100582.18
2022-08-21T00:11:29.357Z,100582.71
2022-08-21T00:14:01.258Z,100580.55
2022-08-21T00:16:33.833Z,100581.95
2022-08-21T00:19:07.270Z,100589.27
2022-08-21T00:21:39.271Z,100587.81
2022-08-21T00:24:13.716Z,100585.98
2022-08-21T00:26:46.242Z,100583.27
2022-08-21T00:29:18.950Z,100584.63
2022-08-21T00:31:50.969Z,100586.39
2022-08-21T00:34:22.827Z,100587.42
2022-08-21T00:36:54.685Z,100584.16
2022-08-21T00:39:31.255Z,100583.08
2022-08-21T00:42:03.134Z,100582.52
2022-08-21T00:44:35.093Z,100579.09
2022-08-21T00:47:10.470Z,100579.79
2022-08-21T00:49:42.923Z,100576.89
2022-08-21T00:52:23.089Z,100573.64
2022-08-21T00:54:57.871Z,100573.58
2022-08-21T00:57:36.367Z,100578.20
2022-08-21T01:00:17.031Z,100576.73
2022-08-21T01:02:49.695Z,100581.55
2022-08-21T01:05:21.582Z,100583.66
2022-08-21T01:07:53.983Z,100580.04
2022-08-21T01:10:26.229Z,100575.92
2022-08-21T01:12:59.701Z,100569.27
2022-08-21T01:15:39.055Z,100568.36
2022-08-21T01:18:13.154Z,100565.30
2022-08-21T01:20:47.753Z,100567.26
2022-08-21T01:23:22.699Z,100574.79
2022-08-21T01:25:54.992Z,100573.69
2022-08-21T01:28:31.357Z,100571.33
2022-08-21T01:31:07.138Z,100569.71
2022-08-21T01:33:39.348Z,100565.73
2022-08-21T01:36:11.741Z,100565.19
2022-08-21T01:38:43.578Z,100562.48
2022-08-21T01:41:18.340Z,100561.41
2022-08-21T01:43:50.954Z,100563.54
2022-08-21T01:46:22.975Z,100568.20
2022-08-21T01:48:57.376Z,100564.06
2022-08-21T01:51:29.430Z,100563.34
2022-08-21T01:54:01.702Z,100556.68
2022-08-21T01:56:43.478Z,100559.38
2022-08-21T01:59:16.396Z,100552.91
2022-08-21T02:01:48.300Z,100552.19
2022-08-21T02:04:20.711Z,100551.45
2022-08-21T02:06:53.509Z,100547.86
2022-08-21T02:09:25.590Z,100539.80
2022-08-21T02:11:58.144Z,100528.13
2022-08-21T02:14:32.002Z,100523.29
2022-08-21T02:17:09.329Z,100527.92
2022-08-21T02:19:42.597Z,100531.08
2022-08-21T02:22:15.445Z,100537.19
2022-08-21T02:24:54.913Z,100538.09
2022-08-21T02:27:28.889Z,100534.34
2022-08-21T02:30:01.116Z,100521.09
2022-08-21T02:32:33.360Z,100519.28
2022-08-21T02:35:09.426Z,100516.23
2022-08-21T02:37:49.316Z,100514.80
2022-08-21T02:40:27.059Z,100512.81
2022-08-21T02:42:59.455Z,100507.80
2022-08-21T02:45:32.425Z,100507.27
2022-08-21T02:48:08.451Z,100502.42
2022-08-21T02:50:47.397Z,100503.15
2022-08-21T02:53:20.854Z,100502.96
2022-08-21T02:55:54.989Z,100500.63
2022-08-21T02:58:29.843Z,100497.36
2022-08-21T03:01:02.299Z,100498.06
2022-08-21T03:03:36.325Z,100492.84
2022-08-21T03:06:10.590Z,100491.73
2022-08-21T03:08:42.912Z,100491.28
2022-08-21T03:11:16.021Z,100490.36
2022-08-21T03:13:51.068Z,100492.33
2022-08-21T03:16:25.974Z,100494.45
2022-08-21T03:19:01.349Z,100495.36
2022-08-21T03:21:33.255Z,100500.02
2022-08-21T03:24:07.914Z,100500.91
2022-08-21T03:26:40.620Z,100513.64
2022-08-21T03:29:13.869Z,100521.00
2022-08-21T03:31:46.703Z,100526.19
2022-08-21T03:34:18.715Z,100527.29
2022-08-21T03:36:51.066Z,100523.16
2022-08-21T03:39:23.089Z,100524.23
2022-08-21T03:41:55.234Z,100529.43
2022-08-21T03:44:31.373Z,100526.55
2022-08-21T03:47:05.241Z,100523.16
2022-08-21T03:49:37.872Z,100525.84
2022-08-21T03:52:10.209Z,100526.40
2022-08-21T03:54:42.831Z,100528.55
2022-08-21T03:57:14.816Z,100531.95
2022-08-21T03:59:47.397Z,100535.72
2022-08-21T04:02:23.007Z,100537.89
2022-08-21T04:04:54.869Z,100535.92
2022-08-21T04:07:26.788Z,100536.99
2022-08-21T04:09:58.854Z,100540.59
2022-08-21T04:12:31.297Z,100539.70
2022-08-21T04:15:03.494Z,100545.26
2022-08-21T04:17:38.384Z,100545.45
2022-08-21T04:20:13.676Z,100549.40
2022-08-21T04:22:49.691Z,100547.45
2022-08-21T04:25:24.094Z,100550.35
2022-08-21T04:27:56.730Z,100551.65
2022-08-21T04:30:29.302Z,100552.79
2022-08-21T04:33:01.889Z,100558.02
2022-08-21T04:35:34.430Z,100561.29
2022-08-21T04:38:06.727Z,100564.73
2022-08-21T04:40:39.231Z,100563.48
2022-08-21T04:43:13.444Z,100573.73
2022-08-21T04:45:50.222Z,100574.82
2022-08-21T04:48:25.425Z,100577.54
2022-08-21T04:51:02.566Z,100585.46
2022-08-21T04:53:39.577Z,100587.08
2022-08-21T04:56:14.605Z,100582.59
2022-08-21T04:58:47.085Z,100582.42
2022-08-21T05:01:23.541Z,100577.41
2022-08-21T05:04:00.825Z,100580.11
2022-08-21T05:06:38.024Z,100578.86
2022-08-21T05:09:11.531Z,100586.04
2022-08-21T05:11:44.026Z,100593.23
2022-08-21T05:14:17.267Z,100595.94
2022-08-21T05:16:49.534Z,100597.20
2022-08-21T05:19:21.659Z,100594.50
2022-08-21T05:21:53.812Z,100595.23
2022-08-21T05:24:26.014Z,100600.06
2022-08-21T05:26:57.847Z,100598.83
2022-08-21T05:29:32.506Z,100596.15
2022-08-21T05:32:09.848Z,100596.16
2022-08-21T05:34:42.881Z,100598.85
2022-08-21T05:37:15.447Z,100603.89
2022-08-21T05:40:05.015Z,100604.08
2022-08-21T05:42:44.236Z,100605.15
2022-08-21T05:45:43.052Z,100607.33
2022-08-21T05:48:20.635Z,100613.27
2022-08-21T05:50:54.187Z,100610.41
2022-08-21T05:53:27.540Z,100610.43
2022-08-21T05:55:59.597Z,100610.82
2022-08-21T05:58:32.423Z,100613.17
2022-08-21T06:01:08.415Z,100611.06
2022-08-21T06:03:42.100Z,100602.66
2022-08-21T06:06:13.991Z,100596.79
2022-08-21T06:08:46.399Z,100597.70
2022-08-21T06:11:20.782Z,100592.38
2022-08-21T06:13:53.378Z,100589.36
2022-08-21T06:16:25.322Z,100585.29
2022-08-21T06:19:02.900Z,100581.36
2022-08-21T06:21:37.488Z,100578.00
2022-08-21T06:24:09.796Z,100576.48
2022-08-21T06:26:41.713Z,100572.42
2022-08-21T06:29:17.515Z,100568.69
2022-08-21T06:31:51.002Z,100560.28
2022-08-21T06:34:23.176Z,100556.37
2022-08-21T06:36:55.303Z,100547.47
2022-08-21T06:39:32.453Z,100542.14
2022-08-21T06:42:05.899Z,100543.10
2022-08-21T06:44:42.963Z,100548.37
2022-08-21T06:47:15.061Z,100544.70
2022-08-21T06:49:47.296Z,100540.63
2022-08-21T06:52:19.707Z,100538.15
2022-08-21T06:54:51.571Z,100537.28
2022-08-21T06:57:26.706Z,100537.87
2022-08-21T06:59:59.955Z,100538.09
2022-08-21T07:02:34.202Z,100536.50
2022-08-21T07:05:15.619Z,100541.02
2022-08-21T07:07:50.603Z,100545.56
2022-08-21T07:10:22.943Z,100547.23
2022-08-21T07:13:00.384Z,100553.00
2022-08-21T07:15:37.037Z,100554.44
2022-08-21T07:18:09.155Z,100552.30
2022-08-21T07:20:41.546Z,100551.94
2022-08-21T07:23:22.898Z,100548.88
2022-08-21T07:25:55.167Z,100544.20
2022-08-21T07:28:27.569Z,100543.66
2022-08-21T07:31:01.832Z,100542.23
2022-08-21T07:33:37.484Z,100546.20
2022-08-21T07:36:10.774Z,100549.26
2022-08-21T07:38:43.196Z,100551.25
2022-08-21T07:41:19.433Z,100554.13
2022-08-21T07:43:52.747Z,100552.14
2022-08-21T07:46:25.683Z,100548.90
2022-08-21T07:48:57.833Z,100546.02
2022-08-21T07:51:32.867Z,100549.61
2022-08-21T07:54:05.159Z,100550.52
2022-08-21T07:56:37.056Z,100550.15
2022-08-21T07:59:09.444Z,100547.64
2022-08-21T08:01:41.756Z,100549.26
2022-08-21T08:04:16.009Z,100552.68
2022-08-21T08:06:47.978Z,100549.07
2022-08-21T08:09:21.851Z,100546.20
2022-08-21T08:11:53.968Z,100547.28
2022-08-21T08:14:31.485Z,100546.20
2022-08-21T08:17:04.060Z,100544.04
2022-08-21T08:19:36.190Z,100548.00
2022-08-21T08:22:18.167Z,100549.98
2022-08-21T08:24:50.781Z,100553.92
2022-08-21T08:27:23.506Z,100553.21
2022-08-21T08:29:55.372Z,100556.65
2022-08-21T08:32:28.531Z,100556.65
2022-08-21T08:35:00.734Z,100555.76
2022-08-21T08:37:34.429Z,100552.34
2022-08-21T08:40:12.497Z,100552.15
2022-08-21T08:42:44.578Z,100553.23
2022-08-21T08:45:23.021Z,100555.73
2022-08-21T08:48:03.627Z,100554.64
2022-08-21T08:50:51.530Z,100553.03
2022-08-21T08:53:31.108Z,100552.48
2022-08-21T08:56:06.936Z,100554.63
2022-08-21T08:58:43.234Z,100555.17
2022-08-21T09:01:19.324Z,100560.05
2022-08-21T09:03:53.143Z,100562.02
2022-08-21T09:06:39.047Z,100562.55
2022-08-21T09:09:28.354Z,100561.48
2022-08-21T09:12:08.305Z,100563.64
2022-08-21T09:15:04.534Z,100560.22
2022-08-21T09:17:54.134Z,100562.56
2022-08-21T09:20:40.370Z,100563.84
2022-08-21T09:23:24.189Z,100561.15
2022-08-21T09:26:04.126Z,100567.09
2022-08-21T09:28:37.513Z,100564.02
2022-08-21T09:31:18.309Z,100560.58
2022-08-21T09:33:50.417Z,100564.01
2022-08-21T09:36:33.422Z,100562.39
2022-08-21T09:39:07.077Z,100555.71
2022-08-21T09:41:40.334Z,100560.58
2022-08-21T09:44:12.390Z,100561.79
2022-08-21T09:46:54.104Z,100559.08
2022-08-21T09:49:37.194Z,100557.80
2022-08-21T09:52:20.807Z,100556.36
2022-08-21T09:54:56.515Z,100564.14
2022-08-21T09:57:50.328Z,100561.80
2022-08-21T10:00:32.923Z,100557.29
2022-08-21T10:03:19.704Z,100556.91
2022-08-21T10:05:58.444Z,100554.17
2022-08-21T10:08:33.983Z,100556.89
2022-08-21T10:11:09.920Z,100555.46
2022-08-21T10:13:53.604Z,100555.09
2022-08-21T10:16:39.847Z,100554.73
2022-08-21T10:19:25.898Z,100555.83
2022-08-21T10:22:09.541Z,100559.61
2022-08-21T10:24:48.609Z,100562.68
2022-08-21T10:27:31.293Z,100564.49
2022-08-21T10:30:09.712Z,100567.90
2022-08-21T10:33:01.980Z,100569.73
2022-08-21T10:35:38.192Z,100575.86
2022-08-21T10:39:02.315Z,100578.76
2022-08-21T10:42:04.928Z,100584.88
2022-08-21T10:44:44.053Z,100586.67
2022-08-21T10:47:25.654Z,100581.83
2022-08-21T10:50:06.359Z,100589.02
2022-08-21T10:53:04.546Z,100591.19
2022-08-21T10:55:41.438Z,100591.20
2022-08-21T10:58:16.456Z,100585.77
2022-08-21T11:00:54.691Z,100587.23
2022-08-21T11:03:31.444Z,100588.84
2022-08-21T11:06:08.068Z,100590.45
2022-08-21T11:08:45.066Z,100592.05
2022-08-21T11:11:24.928Z,100585.94
2022-08-21T11:14:05.339Z,100583.25
2022-08-21T11:16:43.545Z,100581.28
2022-08-21T11:19:23.032Z,100580.76
2022-08-21T11:22:01.395Z,100586.33
2022-08-21T11:24:40.884Z,100584.35
2022-08-21T11:27:21.725Z,100584.16
2022-08-21T11:29:58.117Z,100581.83
2022-08-21T11:32:48.865Z,100577.34
2022-08-21T11:35:34.659Z,100573.02
2022-08-21T11:38:24.259Z,100580.95
2022-08-21T11:41:22.261Z,100580.39
2022-08-21T11:44:05.146Z,100580.59
2022-08-21T11:46:47.299Z,100578.60
2022-08-21T11:49:34.170Z,100579.87
2022-08-21T11:52:16.162Z,100579.13
2022-08-21T11:54:52.326Z,100582.00
2022-08-21T11:57:30.403Z,100588.45
2022-08-21T12:00:08.936Z,100583.05
2022-08-21T12:02:55.889Z,100577.45
2022-08-21T12:05:34.194Z,100580.87
2022-08-21T12:08:12.530Z,100579.80
2022-08-21T12:11:00.840Z,100579.06
2022-08-21T12:13:40.406Z,100582.45
2022-08-21T12:16:18.719Z,100579.50
2022-08-21T12:18:50.633Z,100580.04
2022-08-21T12:21:27.149Z,100579.84
2022-08-21T12:24:18.331Z,100577.48
2022-08-21T12:26:56.108Z,100575.14
2022-08-21T12:29:30.852Z,100583.42
2022-08-21T12:32:06.628Z,100588.78
2022-08-21T12:34:43.284Z,100592.16
2022-08-21T12:37:22.502Z,100596.67
2022-08-21T12:40:00.759Z,100600.59
2022-08-21T12:42:39.697Z,100600.50
2022-08-21T12:45:20.577Z,100603.15
2022-08-21T12:47:58.341Z,100604.52
2022-08-21T12:50:39.276Z,100612.69
2022-08-21T12:53:20.460Z,100614.07
2022-08-21T12:55:53.605Z,100610.21
2022-08-21T12:58:26.775Z,100612.49
2022-08-21T13:01:02.041Z,100614.67
2022-08-21T13:03:37.521Z,100617.05
2022-08-21T13:06:16.062Z,100619.04
2022-08-21T13:08:50.114Z,100618.27
2022-08-21T13:11:32.712Z,100620.00
2022-08-21T13:14:10.862Z,100614.27
2022-08-21T13:16:44.499Z,100620.20
2022-08-21T13:19:24.074Z,100620.75
2022-08-21T13:21:56.659Z,100627.61
2022-08-21T13:24:42.328Z,100625.27
2022-08-21T13:27:28.694Z,100623.98
2022-08-21T13:30:15.388Z,100630.08
2022-08-21T13:32:52.397Z,100631.24
2022-08-21T13:35:26.964Z,100630.42
2022-08-21T13:38:00.779Z,100639.16
2022-08-21T13:40:49.230Z,100637.86
2022-08-21T13:43:24.571Z,100646.80
2022-08-21T13:45:59.088Z,100652.05
2022-08-21T13:48:35.283Z,100652.45
2022-08-21T13:51:08.425Z,100659.16
2022-08-21T13:53:52.425Z,100657.70
2022-08-21T13:56:30.314Z,100662.05
2022-08-21T13:59:04.932Z,100662.13
2022-08-21T14:01:41.135Z,100668.68
2022-08-21T14:04:23.125Z,100666.46
2022-08-21T14:06:55.637Z,100672.13
2022-08-21T14:09:31.836Z,100672.80
2022-08-21T14:12:23.495Z,100677.27
2022-08-21T14:14:58.041Z,100684.03
2022-08-21T14:17:36.326Z,100687.21
2022-08-21T14:20:13.846Z,100687.89
2022-08-21T14:22:48.188Z,100688.39
2022-08-21T14:25:43.776Z,100693.31
2022-08-21T14:28:27.878Z,100692.39
2022-08-21T14:31:01.210Z,100696.20
2022-08-21T14:33:37.246Z,100697.45
2022-08-21T14:36:10.330Z,100697.34
2022-08-21T14:38:44.490Z,100701.27
2022-08-21T14:41:20.924Z,100700.16
2022-08-21T14:44:05.872Z,100694.00
2022-08-21T14:46:55.395Z,100692.52
2022-08-21T14:49:30.604Z,100694.98
2022-08-21T14:52:03.220Z,100700.55
2022-08-21T14:54:36.277Z,100705.38
2022-08-21T14:57:11.297Z,100705.98
2022-08-21T14:59:44.077Z,100701.58
2022-08-21T15:02:16.190Z,100698.80
2022-08-21T15:04:48.220Z,100697.64
2022-08-21T15:07:22.649Z,100696.23
2022-08-21T15:09:55.885Z,100691.83
2022-08-21T15:12:28.500Z,100696.73
2022-08-21T15:15:00.742Z,100699.94
2022-08-21T15:17:34.385Z,100704.30
2022-08-21T15:20:08.736Z,100699.90
2022-08-21T15:22:47.688Z,100693.75
2022-08-21T15:25:30.793Z,100694.73
2022-08-21T15:28:05.111Z,100698.59
2022-08-21T15:30:38.395Z,100701.00
2022-08-21T15:33:10.652Z,100701.09
2022-08-21T15:35:43.801Z,100704.83
2022-08-21T15:38:17.154Z,100701.73
2022-08-21T15:40:52.311Z,100705.48
2022-08-21T15:43:30.034Z,100708.81
2022-08-21T15:46:03.929Z,100707.33
2022-08-21T15:48:35.896Z,100709.98
2022-08-21T15:51:08.326Z,100710.61
2022-08-21T15:53:41.401Z,100710.85
2022-08-21T15:56:22.646Z,100717.98
2022-08-21T15:59:01.275Z,100719.73
2022-08-21T16:01:44.424Z,100726.86
2022-08-21T16:04:21.957Z,100724.08
2022-08-21T16:06:59.863Z,100730.48
2022-08-21T16:09:36.144Z,100731.95
2022-08-21T16:12:09.865Z,100730.39
2022-08-21T16:14:41.926Z,100728.39
2022-08-21T16:17:13.958Z,100730.72
2022-08-21T16:19:47.432Z,100725.67
2022-08-21T16:22:19.431Z,100727.05
2022-08-21T16:24:51.343Z,100726.46
2022-08-21T16:27:23.618Z,100726.42
2022-08-21T16:29:59.854Z,100726.02
2022-08-21T16:32:32.202Z,100729.08
2022-08-21T16:35:05.676Z,100734.73
2022-08-21T16:37:37.481Z,100741.61
2022-08-21T16:40:12.251Z,100742.55
2022-08-21T16:42:46.328Z,100751.82
2022-08-21T16:45:21.438Z,100760.36
2022-08-21T16:47:53.606Z,100764.91
2022-08-21T16:50:26.737Z,100765.36
2022-08-21T16:53:01.270Z,100765.35
2022-08-21T16:55:33.824Z,100769.69
2022-08-21T16:58:10.456Z,100767.10
2022-08-21T17:00:42.497Z,100769.37
2022-08-21T17:03:18.416Z,100765.23
2022-08-21T17:05:51.227Z,100769.98
2022-08-21T17:08:25.331Z,100775.19
2022-08-21T17:10:58.500Z,100774.21
2022-08-21T17:13:31.225Z,100774.86
2022-08-21T17:16:03.885Z,100776.02
2022-08-21T17:18:36.149Z,100778.61
2022-08-21T17:21:08.610Z,100783.34
2022-08-21T17:23:40.777Z,100783.30
2022-08-21T17:26:14.302Z,100788.01
2022-08-21T17:28:50.911Z,100794.57
2022-08-21T17:31:25.223Z,100798.80
2022-08-21T17:33:59.877Z,100804.02
2022-08-21T17:36:32.619Z,100804.65
2022-08-21T17:39:07.401Z,100801.73
2022-08-21T17:41:40.844Z,100811.43
2022-08-21T17:44:19.531Z,100815.14
2022-08-21T17:46:52.787Z,100816.10
2022-08-21T17:49:25.546Z,100820.53
2022-08-21T17:51:57.633Z,100820.73
2022-08-21T17:54:34.704Z,100820.67
2022-08-21T17:57:08.674Z,100823.42
2022-08-21T17:59:41.285Z,100826.05
2022-08-21T18:02:19.979Z,100823.18
2022-08-21T18:07:59.639Z,100827.10
2022-08-21T18:10:31.954Z,100828.78
2022-08-21T18:13:22.954Z,100826.25
2022-08-21T18:16:26.678Z,100819.83
2022-08-21T18:19:16.156Z,100820.49
2022-08-21T18:21:48.210Z,100824.81
2022-08-21T18:24:20.273Z,100829.56
2022-08-21T18:26:53.666Z,100828.36
2022-08-21T18:29:25.794Z,100829.86
2022-08-21T18:31:58.024Z,100826.63
2022-08-21T18:34:34.404Z,100827.32
2022-08-21T18:37:06.852Z,100830.67
2022-08-21T18:39:39.233Z,100830.84
2022-08-21T18:42:14.919Z,100836.83
2022-08-21T18:44:49.387Z,100832.31
2022-08-21T18:47:30.819Z,100832.39
2022-08-21T18:50:02.959Z,100830.71
2022-08-21T18:52:36.296Z,100832.92
2022-08-21T18:55:13.455Z,100839.66
2022-08-21T18:57:47.931Z,100832.66
2022-08-21T19:00:27.185Z,100836.91
2022-08-21T19:03:00.096Z,100837.56
2022-08-21T19:05:32.269Z,100837.87
2022-08-21T19:08:05.055Z,100837.55
2022-08-21T19:10:37.924Z,100837.88
2022-08-21T19:13:17.588Z,100834.29
2022-08-21T19:15:53.058Z,100834.70
2022-08-21T19:18:28.653Z,100841.12
2022-08-21T19:21:01.604Z,100834.98
2022-08-21T19:23:35.139Z,100840.23
2022-08-21T19:26:10.883Z,100844.31
2022-08-21T19:28:48.643Z,100847.84
2022-08-21T19:31:23.509Z,100848.02
2022-08-21T19:36:56.744Z,100851.98
2022-08-21T19:39:40.229Z,100853.84
2022-08-21T19:42:15.060Z,100853.62
2022-08-21T19:44:47.369Z,100850.36
2022-08-21T19:47:20.878Z,100849.77
2022-08-21T19:49:58.184Z,100847.30
2022-08-21T19:52:32.559Z,100853.19
2022-08-21T19:55:15.341Z,100850.29
2022-08-21T19:57:47.690Z,100852.77
2022-08-21T20:00:19.918Z,100850.17
2022-08-21T20:02:54.244Z,100850.22
2022-08-21T20:05:26.239Z,100847.79
2022-08-21T20:11:08.890Z,100850.98
2022-08-21T20:13:43.361Z,100858.31
2022-08-21T20:16:19.221Z,100860.60
2022-08-21T20:18:51.202Z,100860.05
2022-08-21T20:21:23.506Z,100864.86
2022-08-21T20:23:55.537Z,100858.09
2022-08-21T20:26:28.188Z,100855.33
2022-08-21T20:29:00.942Z,100850.55
2022-08-21T20:31:33.183Z,100853.23
2022-08-21T20:34:06.028Z,100857.80
2022-08-21T20:36:38.195Z,100856.56
2022-08-21T20:39:11.334Z,100860.64
2022-08-21T20:41:45.266Z,100863.73
2022-08-21T20:44:29.931Z,100872.15
2022-08-21T20:47:08.668Z,100872.18
2022-08-21T20:49:46.903Z,100874.34
2022-08-21T20:52:21.761Z,100874.23
2022-08-21T20:55:00.701Z,100875.44
2022-08-21T20:57:46.660Z,100874.11
2022-08-21T21:00:26.958Z,100877.18
2022-08-21T21:03:11.058Z,100877.39
2022-08-21T21:05:49.865Z,100873.52
2022-08-21T21:08:26.282Z,100872.99
2022-08-21T21:11:00.814Z,100873.48
2022-08-21T21:13:37.513Z,100877.55
2022-08-21T21:16:19.582Z,100877.13
2022-08-21T21:18:56.919Z,100872.36
2022-08-21T21:21:36.720Z,100872.08
2022-08-21T21:24:14.415Z,100872.56
2022-08-21T21:26:50.680Z,100868.42
2022-08-21T21:29:30.083Z,100868.05
2022-08-21T21:32:07.812Z,100863.11
2022-08-21T21:34:42.783Z,100860.16
2022-08-21T21:37:25.331Z,100862.57
2022-08-21T21:40:08.199Z,100865.35
2022-08-21T21:42:50.885Z,100867.51
2022-08-21T21:45:28.192Z,100869.27
2022-08-21T21:48:13.496Z,100869.95
2022-08-21T21:51:00.880Z,100875.27
2022-08-21T21:53:51.627Z,100877.65
2022-08-21T21:56:43.741Z,100874.11
2022-08-21T21:59:42.243Z,100872.26
2022-08-21T22:02:25.112Z,100866.09
2022-08-21T22:05:08.930Z,100863.97
2022-08-21T22:07:45.237Z,100865.80
2022-08-21T22:10:30.500Z,100868.34
2022-08-21T22:13:13.832Z,100870.52
2022-08-21T22:16:01.866Z,100874.19
2022-08-21T22:18:45.773Z,100873.27
2022-08-21T22:21:24.148Z,100876.95
2022-08-21T22:24:04.041Z,100873.95
2022-08-21T22:26:44.359Z,100867.63
2022-08-21T22:29:20.497Z,100868.71
2022-08-21T22:32:08.590Z,100870.35
2022-08-21T22:34:43.754Z,100873.89
2022-08-21T22:37:15.739Z,100876.42
2022-08-21T22:39:56.627Z,100876.08
2022-08-21T22:42:29.013Z,100876.98
2022-08-21T22:45:04.764Z,100880.29
2022-08-21T22:47:48.481Z,100876.29
2022-08-21T22:50:31.734Z,100879.08
2022-08-21T22:53:07.902Z,100875.30
2022-08-21T22:55:43.662Z,100872.36
2022-08-21T22:58:23.798Z,100868.23
2022-08-21T23:01:00.414Z,100872.24
2022-08-21T23:03:43.633Z,100873.46
2022-08-21T23:06:29.146Z,100872.22
2022-08-21T23:09:01.139Z,100872.89
2022-08-21T23:11:42.726Z,100872.14
2022-08-21T23:14:16.574Z,100872.22
2022-08-21T23:16:54.863Z,100872.56
2022-08-21T23:19:43.815Z,100870.70
2022-08-21T23:22:40.822Z,100871.81
2022-08-21T23:25:39.250Z,100876.03
2022-08-21T23:28:22.901Z,100876.08
2022-08-21T23:31:04.195Z,100877.62
2022-08-21T23:33:58.678Z,100877.21
2022-08-21T23:37:03.481Z,100881.48
2022-08-21T23:39:51.725Z,100874.94
2022-08-21T23:42:50.990Z,100871.37
2022-08-21T23:45:35.809Z,100870.65
2022-08-21T23:48:29.313Z,100874.71
2022-08-21T23:51:09.668Z,100876.77
2022-08-21T23:53:52.702Z,100876.23
2022-08-21T23:56:37.731Z,100869.86
2022-08-21T23:59:19.446Z,100872.38
